Skip Navigation LinksHome page > Weather > Current weather Skip Navigation Links

Current Weather

George Bush Intercontinental Arpt/Houston, Houston

For information only: do not use for flight planning or navigation.
Latest weather
Observation time Sunday, September 20, 2020 8:53 AM CDT
Local time Sunday, September 20, 2020 9:49 AM CDT
Flight conditions Visual Meteorological Conditions
Winds
Wind direction North-Northeast (20°)
Wind speed 15 mph
Visibility 10 mi.
Sky condition
Ceiling unlimited
Cloud layer few clouds 6,000 ft.
Cloud layer few clouds 12,000 ft.
Temperature 72°F
Dewpoint 61°F
Altimeter 30.00 in.Hg
Derived measurements
Relative humidity 68%
Density altitude 1098 ft.
Sea-level pressure 30.00 in.Hg
Remarks
Automated weather observing station with precipitation discriminator.
METAR KIAH 201353Z 02013KT 10SM FEW060 FEW120 22/16 A3000 RMK AO2 SLP160 T02220161

Settings

Location code

InnerDrive.Weather 4.0.6770.0 Release CLR 4.0.30319.42000
Copyright ©2018 Inner Drive Technology. All rights reserved. Portions Copyright ©1986-2018 David Braverman.

Find weather

Site navigation


Skip Navigation Links

Place info

Page info

PayPal - The safer, easier way to pay online!

Return home.

Copyright ©2020 Inner Drive Technology. Purveyors of fine, hand-crafted computer software. Page printed 2020-09-20T14:49:24 UTC.